Time;durP1;ratioP1;P1;durP2;ratioP2;P2;SDS_P1;SDS_P2;PMS_P1;PMS_P2;Temp;Humidity;BMP_temperature;BMP_pressure;BME280_temperature;BME280_humidity;BME280_pressure;Samples;Min_cycle;Max_cycle;Signal;HPM_P1;HPM_P2
2023/04/14 00:00:08;;;;;;;;;;;;;;;16.24;35.96;94183.09;4950280;28;19930;-61
2023/04/14 00:02:38;;;;;;;;;;;;;;;16.77;35.23;94181.06;4936200;29;20325;-59
2023/04/14 00:05:05;;;;;;;;;;;;;;;16.57;35.20;94192.25;4940019;29;19933;-64
2023/04/14 00:07:32;;;;;;;;;;;;;;;16.45;35.74;94178.81;4944753;29;19931;-61
2023/04/14 00:09:59;;;;;;;;;;;;;;;16.69;35.28;94173.91;4936231;29;20449;-61
2023/04/14 00:12:26;;;;;;;;;;;;;;;16.95;35.44;94184.50;4942759;29;19931;-61
2023/04/14 00:14:52;;;;;;;;;;;;;;;17.08;34.93;94176.38;4937890;29;19930;-62
2023/04/14 00:17:19;;;;;;;;;;;;;;;17.23;34.63;94167.97;4948289;29;20433;-61
2023/04/14 00:19:46;;;;;;;;;;;;;;;17.18;35.15;94160.19;4938678;28;19927;-61
2023/04/14 00:22:13;;;;;;;;;;;;;;;16.94;35.01;94178.44;4935625;29;19973;-61
2023/04/14 00:24:42;;;;;;;;;;;;;;;16.95;35.29;94160.69;4934316;29;19977;-60
2023/04/14 00:27:09;;;;;;;;;;;;;;;17.08;35.25;94160.50;4948978;29;19981;-62
2023/04/14 00:29:39;;;;;;;;;;;;;;;16.83;35.15;94157.88;4945418;28;20030;-62
2023/04/14 00:32:08;;;;;;;;;;;;;;;17.01;35.21;94159.41;4932873;29;19931;-64
2023/04/14 00:34:35;;;;;;;;;;;;;;;17.25;34.80;94157.06;4950100;29;20374;-61
2023/04/14 00:37:03;;;;;;;;;;;;;;;17.20;35.08;94158.00;4945802;29;19934;-61
2023/04/14 00:39:30;;;;;;;;;;;;;;;16.99;35.20;94159.72;4940387;29;20401;-61
2023/04/14 00:42:00;;;;;;;;;;;;;;;16.02;37.32;94164.72;4950362;28;19931;-61
2023/04/14 00:44:28;;;;;;;;;;;;;;;16.39;36.27;94163.41;4933533;29;19939;-62
2023/04/14 00:46:56;;;;;;;;;;;;;;;16.66;36.33;94152.59;4949209;29;19970;-62
2023/04/14 00:49:24;;;;;;;;;;;;;;;16.88;36.21;94161.13;4950738;28;20033;-61
2023/04/14 00:51:51;;;;;;;;;;;;;;;16.95;35.89;94152.75;4937775;28;20386;-61
2023/04/14 00:54:18;;;;;;;;;;;;;;;17.08;35.60;94149.13;4928532;29;19989;-61
2023/04/14 00:56:46;;;;;;;;;;;;;;;17.18;35.71;94149.59;4947442;28;19935;-61
2023/04/14 00:59:13;;;;;;;;;;;;;;;17.16;35.30;94146.50;4950789;28;19953;-61
2023/04/14 01:01:40;;;;;;;;;;;;;;;17.25;34.99;94146.47;4931685;29;19931;-61
2023/04/14 01:04:07;;;;;;;;;;;;;;;17.23;35.33;94141.50;4939159;29;19938;-61
2023/04/14 01:06:35;;;;;;;;;;;;;;;16.97;35.28;94143.38;4945903;28;19934;-60
2023/04/14 01:09:03;;;;;;;;;;;;;;;16.87;35.96;94137.63;4941667;29;19954;-62
2023/04/14 01:11:41;;;;;;;;;;;;;;;17.05;35.62;94147.91;4945055;29;19934;-62
2023/04/14 01:14:11;;;;;;;;;;;;;;;16.55;36.31;94141.50;4939781;29;20312;-60
2023/04/14 01:16:39;;;;;;;;;;;;;;;16.96;35.21;94141.84;4947068;28;19935;-61
2023/04/14 01:19:09;;;;;;;;;;;;;;;16.89;35.46;94136.25;4943476;29;20018;-60
2023/04/14 01:21:40;;;;;;;;;;;;;;;16.50;36.18;94146.97;4934230;28;19935;-61
2023/04/14 01:24:19;;;;;;;;;;;;;;;16.88;35.11;94155.06;4940914;29;20401;-61
2023/04/14 01:26:46;;;;;;;;;;;;;;;16.69;35.17;94150.09;4947919;29;19993;-62
2023/04/14 01:29:32;;;;;;;;;;;;;;;16.63;36.32;94143.41;4921953;29;20034;-62
2023/04/14 01:32:04;;;;;;;;;;;;;;;16.86;35.84;94142.16;4938802;29;20072;-60
2023/04/14 01:34:42;;;;;;;;;;;;;;;16.66;35.59;94136.72;4932732;29;20390;-61
2023/04/14 01:37:14;;;;;;;;;;;;;;;16.71;35.82;94132.06;4947014;29;19930;-61
2023/04/14 01:39:44;;;;;;;;;;;;;;;16.98;35.88;94134.38;4936350;29;19931;-61
2023/04/14 01:42:13;;;;;;;;;;;;;;;17.12;35.44;94142.91;4927755;29;19984;-62
2023/04/14 01:44:41;;;;;;;;;;;;;;;16.56;36.27;94135.16;4936499;28;19926;-62
2023/04/14 01:47:10;;;;;;;;;;;;;;;16.31;37.60;94141.16;4947457;28;19934;-62
2023/04/14 01:49:38;;;;;;;;;;;;;;;16.84;36.04;94139.03;4933261;29;19937;-60
2023/04/14 01:52:10;;;;;;;;;;;;;;;16.58;36.76;94140.13;4930730;29;19926;-61
2023/04/14 01:54:38;;;;;;;;;;;;;;;16.86;36.38;94128.91;4946083;29;20302;-62
2023/04/14 01:57:06;;;;;;;;;;;;;;;16.78;36.74;94137.66;4947662;28;19927;-60
2023/04/14 01:59:35;;;;;;;;;;;;;;;16.92;36.91;94135.63;4933311;28;19934;-61
2023/04/14 02:02:03;;;;;;;;;;;;;;;16.22;37.42;94116.59;4932560;29;20016;-60
2023/04/14 02:04:31;;;;;;;;;;;;;;;16.65;37.32;94125.34;4934001;29;19936;-61
2023/04/14 02:06:59;;;;;;;;;;;;;;;16.92;36.76;94134.81;4931611;29;19948;-60
2023/04/14 02:09:26;;;;;;;;;;;;;;;16.34;37.33;94132.59;4938122;29;20010;-61
2023/04/14 02:11:54;;;;;;;;;;;;;;;15.78;38.46;94148.47;4948408;29;19934;-60
2023/04/14 02:14:22;;;;;;;;;;;;;;;16.43;37.73;94149.25;4937868;29;19931;-60
2023/04/14 02:16:49;;;;;;;;;;;;;;;16.72;36.76;94156.63;4946892;29;19978;-61
2023/04/14 02:19:18;;;;;;;;;;;;;;;16.70;36.17;94138.41;4944748;29;20394;-60
2023/04/14 02:21:45;;;;;;;;;;;;;;;16.87;36.32;94142.94;4932217;29;19938;-60
2023/04/14 02:24:12;;;;;;;;;;;;;;;16.94;36.50;94146.66;4932115;29;20409;-61
2023/04/14 02:26:42;;;;;;;;;;;;;;;17.04;35.99;94143.69;4945397;29;20017;-61
2023/04/14 02:29:11;;;;;;;;;;;;;;;16.86;36.92;94139.50;4945715;28;19935;-61
2023/04/14 02:31:45;;;;;;;;;;;;;;;16.77;37.16;94149.31;4931178;29;19964;-61
2023/04/14 02:34:14;;;;;;;;;;;;;;;16.30;38.18;94128.22;4944755;29;20370;-58
2023/04/14 02:36:44;;;;;;;;;;;;;;;16.46;38.36;94132.75;4945101;29;19927;-61
2023/04/14 02:39:20;;;;;;;;;;;;;;;16.34;38.23;94140.53;4939628;29;19930;-60
2023/04/14 02:41:52;;;;;;;;;;;;;;;16.54;37.27;94131.25;4939327;29;19950;-59
2023/04/14 02:44:22;;;;;;;;;;;;;;;15.97;38.37;94136.56;4932543;29;20008;-60
2023/04/14 02:47:02;;;;;;;;;;;;;;;16.04;38.72;94141.38;4930861;29;20037;-61
2023/04/14 02:49:45;;;;;;;;;;;;;;;16.02;38.23;94146.97;4948024;28;19930;-61
2023/04/14 02:52:15;;;;;;;;;;;;;;;15.96;38.05;94139.53;4935827;29;20420;-60
2023/04/14 02:54:45;;;;;;;;;;;;;;;15.96;38.18;94134.22;4923282;28;19930;-61
2023/04/14 02:57:13;;;;;;;;;;;;;;;16.04;38.26;94130.81;4930856;29;19962;-61
2023/04/14 02:59:44;;;;;;;;;;;;;;;16.09;39.05;94139.38;4930568;28;19931;-61
2023/04/14 03:02:12;;;;;;;;;;;;;;;15.87;39.23;94141.34;4932321;28;19927;-59
2023/04/14 03:04:44;;;;;;;;;;;;;;;15.91;39.08;94126.47;4931883;29;19937;-60
2023/04/14 03:07:23;;;;;;;;;;;;;;;15.72;39.24;94125.91;4945282;29;19930;-60
2023/04/14 03:09:50;;;;;;;;;;;;;;;15.91;39.54;94123.81;4935461;28;19970;-60
2023/04/14 03:12:18;;;;;;;;;;;;;;;15.84;39.47;94099.69;4928261;29;20017;-61
2023/04/14 03:14:46;;;;;;;;;;;;;;;15.45;40.17;94107.63;4930268;29;20322;-62
2023/04/14 03:17:13;;;;;;;;;;;;;;;15.80;39.78;94104.03;4945298;29;20602;-61
2023/04/14 03:19:46;;;;;;;;;;;;;;;16.25;38.97;94102.75;4934665;29;19926;-61
2023/04/14 03:22:14;;;;;;;;;;;;;;;15.94;38.60;94104.69;4940350;29;19930;-61
2023/04/14 03:24:43;;;;;;;;;;;;;;;15.25;40.33;94107.03;4938394;29;19934;-62
2023/04/14 03:27:17;;;;;;;;;;;;;;;15.77;39.67;94125.75;4950553;29;19930;-60
2023/04/14 03:29:46;;;;;;;;;;;;;;;16.05;38.87;94117.31;4917398;29;19934;-61
2023/04/14 03:32:14;;;;;;;;;;;;;;;16.09;39.40;94120.13;4943292;29;20366;-61
2023/04/14 03:34:42;;;;;;;;;;;;;;;16.29;38.68;94108.97;4935428;29;19934;-62
2023/04/14 03:37:12;;;;;;;;;;;;;;;16.40;38.86;94091.72;4938320;28;20522;-61
2023/04/14 03:39:39;;;;;;;;;;;;;;;16.22;39.60;94092.78;4935753;29;19933;-61
2023/04/14 03:42:07;;;;;;;;;;;;;;;16.21;39.09;94094.66;4947786;29;19978;-60
2023/04/14 03:44:36;;;;;;;;;;;;;;;16.37;39.24;94086.28;4922624;28;19930;-61
2023/04/14 03:47:06;;;;;;;;;;;;;;;16.50;38.53;94070.28;4933832;29;19926;-61
2023/04/14 03:49:35;;;;;;;;;;;;;;;16.35;39.12;94057.47;4939673;29;19977;-61
2023/04/14 03:52:06;;;;;;;;;;;;;;;16.31;39.53;94046.00;4945965;29;19930;-60
2023/04/14 03:54:35;;;;;;;;;;;;;;;16.40;39.13;94048.63;4941210;28;19978;-61
2023/04/14 03:57:05;;;;;;;;;;;;;;;15.43;40.45;94068.34;4946845;28;19982;-60
2023/04/14 03:59:34;;;;;;;;;;;;;;;15.72;39.57;94051.97;4941017;29;19954;-60
2023/04/14 04:02:01;;;;;;;;;;;;;;;15.64;40.48;94042.94;4948080;29;20635;-59
2023/04/14 04:04:33;;;;;;;;;;;;;;;15.96;39.38;94047.03;4947296;28;19930;-62
2023/04/14 04:07:00;;;;;;;;;;;;;;;16.09;39.57;94048.78;4951256;28;19969;-61
2023/04/14 04:09:28;;;;;;;;;;;;;;;16.28;38.52;94051.88;4948892;29;19965;-61
2023/04/14 04:11:58;;;;;;;;;;;;;;;15.90;38.57;94056.97;4938176;29;20390;-62
2023/04/14 04:14:26;;;;;;;;;;;;;;;15.98;38.63;94060.72;4945307;29;19930;-64
2023/04/14 04:16:55;;;;;;;;;;;;;;;16.09;38.00;94062.00;4949853;29;19938;-61
2023/04/14 04:19:22;;;;;;;;;;;;;;;16.21;38.21;94056.84;4944699;29;19934;-61
2023/04/14 04:21:51;;;;;;;;;;;;;;;16.32;38.37;94049.41;4943917;29;19938;-62
2023/04/14 04:24:21;;;;;;;;;;;;;;;16.46;38.50;94050.78;4943630;29;19932;-61
2023/04/14 04:26:50;;;;;;;;;;;;;;;16.46;37.80;94053.44;4929223;29;20301;-62
2023/04/14 04:29:17;;;;;;;;;;;;;;;16.30;38.43;94057.66;4934267;28;19974;-67
2023/04/14 04:31:44;;;;;;;;;;;;;;;16.78;37.80;94060.94;4937601;29;20373;-62
2023/04/14 04:34:13;;;;;;;;;;;;;;;16.71;37.86;94060.63;4938897;29;20597;-62
2023/04/14 04:36:41;;;;;;;;;;;;;;;16.63;38.23;94063.25;4931204;29;20465;-61
2023/04/14 04:39:08;;;;;;;;;;;;;;;16.37;38.42;94060.59;4933698;29;21136;-63
2023/04/14 04:41:38;;;;;;;;;;;;;;;16.59;38.74;94067.63;4933889;29;19930;-61
2023/04/14 04:44:05;;;;;;;;;;;;;;;16.52;38.55;94067.31;4934989;29;19930;-68
2023/04/14 04:46:52;;;;;;;;;;;;;;;16.31;38.19;94083.00;4946083;29;20334;-64
2023/04/14 04:49:23;;;;;;;;;;;;;;;16.75;38.11;94092.53;4942616;28;19930;-65
2023/04/14 04:51:52;;;;;;;;;;;;;;;16.88;37.88;94102.91;4938422;29;19930;-67
2023/04/14 04:54:20;;;;;;;;;;;;;;;16.97;37.17;94095.75;4943591;29;20193;-67
2023/04/14 04:56:47;;;;;;;;;;;;;;;16.98;37.74;94096.53;4946821;29;19931;-66
2023/04/14 04:59:13;;;;;;;;;;;;;;;16.81;37.58;94091.25;4935190;29;20736;-66
2023/04/14 05:01:40;;;;;;;;;;;;;;;17.02;38.25;94077.06;4948526;29;19962;-63
2023/04/14 05:04:07;;;;;;;;;;;;;;;17.41;37.37;94077.91;4943469;29;19931;-66
2023/04/14 05:06:36;;;;;;;;;;;;;;;17.17;37.20;94081.84;4947306;29;19927;-68
2023/04/14 05:09:03;;;;;;;;;;;;;;;16.78;38.27;94081.31;4941949;29;20385;-61
2023/04/14 05:11:30;;;;;;;;;;;;;;;16.54;39.26;94071.22;4943670;28;20034;-68
2023/04/14 05:13:57;;;;;;;;;;;;;;;16.72;38.64;94072.75;4934104;29;20570;-65
2023/04/14 05:16:24;;;;;;;;;;;;;;;16.46;38.47;94079.88;4946736;29;19930;-65
2023/04/14 05:18:51;;;;;;;;;;;;;;;16.91;38.54;94077.72;4937740;29;19941;-64
2023/04/14 05:21:18;;;;;;;;;;;;;;;16.74;38.31;94070.56;4947131;29;20333;-64
2023/04/14 05:23:45;;;;;;;;;;;;;;;17.21;37.89;94064.25;4931223;29;19930;-64
2023/04/14 05:26:12;;;;;;;;;;;;;;;17.23;36.87;94058.63;4940667;29;19930;-64
2023/04/14 05:28:42;;;;;;;;;;;;;;;17.34;36.92;94038.66;4948695;29;19926;-64
2023/04/14 05:31:08;;;;;;;;;;;;;;;17.06;37.88;94038.28;4944457;29;20021;-65
2023/04/14 05:33:35;;;;;;;;;;;;;;;17.15;37.88;94043.56;4950215;29;20022;-64
2023/04/14 05:36:19;;;;;;;;;;;;;;;17.14;37.92;94034.84;4949093;28;19962;-65
2023/04/14 05:38:46;;;;;;;;;;;;;;;17.32;37.35;94019.66;4937759;29;19982;-67
2023/04/14 05:41:12;;;;;;;;;;;;;;;17.48;37.52;94025.25;4941641;28;19926;-63
2023/04/14 05:43:40;;;;;;;;;;;;;;;17.53;37.17;94017.13;4949458;29;20461;-65
2023/04/14 05:46:06;;;;;;;;;;;;;;;17.44;37.40;94008.41;4948456;29;20029;-65
2023/04/14 05:48:36;;;;;;;;;;;;;;;17.56;37.37;94000.56;4937054;29;20369;-73
2023/04/14 05:51:03;;;;;;;;;;;;;;;17.35;37.26;93989.13;4943283;28;19934;-74
2023/04/14 05:53:29;;;;;;;;;;;;;;;17.73;37.21;93980.09;4944542;29;20386;-66
2023/04/14 05:55:56;;;;;;;;;;;;;;;17.51;36.94;93983.00;4941977;29;19937;-65
2023/04/14 05:58:25;;;;;;;;;;;;;;;17.59;37.15;93984.06;4938981;28;19935;-66
2023/04/14 06:00:52;;;;;;;;;;;;;;;17.59;36.65;93984.06;4942850;28;19930;-69
2023/04/14 06:03:19;;;;;;;;;;;;;;;17.65;36.59;93972.16;4946440;28;19931;-69
2023/04/14 06:05:47;;;;;;;;;;;;;;;17.83;35.78;93984.22;4950041;28;19926;-64
2023/04/14 06:08:13;;;;;;;;;;;;;;;17.69;35.31;93991.63;4934254;28;20000;-64
2023/04/14 06:10:40;;;;;;;;;;;;;;;17.38;36.01;93975.25;4940428;29;19938;-64
2023/04/14 06:13:07;;;;;;;;;;;;;;;17.41;36.37;93987.88;4929883;29;19931;-66
2023/04/14 06:15:34;;;;;;;;;;;;;;;17.14;38.15;93984.56;4937041;29;20410;-64
2023/04/14 06:18:01;;;;;;;;;;;;;;;17.48;37.36;93972.28;4929801;29;19997;-64
2023/04/14 06:20:28;;;;;;;;;;;;;;;17.41;37.66;93966.69;4941519;29;20039;-66
2023/04/14 06:22:59;;;;;;;;;;;;;;;17.30;38.02;93962.84;4947733;29;19930;-65
2023/04/14 06:25:26;;;;;;;;;;;;;;;17.49;37.24;93952.63;4933440;29;19986;-64
2023/04/14 06:27:55;;;;;;;;;;;;;;;17.20;37.59;93961.31;4929842;29;19938;-64
2023/04/14 06:30:22;;;;;;;;;;;;;;;17.26;37.80;93932.81;4931529;29;19927;-67
2023/04/14 06:32:52;;;;;;;;;;;;;;;17.94;36.49;93937.66;4930250;29;20556;-63
2023/04/14 06:35:20;;;;;;;;;;;;;;;17.89;36.87;93925.41;4940009;29;20071;-66
2023/04/14 06:38:02;;;;;;;;;;;;;;;17.73;37.31;93899.81;4942716;29;19970;-66
2023/04/14 06:40:28;;;;;;;;;;;;;;;17.96;37.47;93901.03;4940329;29;20026;-65
2023/04/14 06:42:55;;;;;;;;;;;;;;;18.06;36.60;93897.97;4948598;29;19926;-65
2023/04/14 06:45:23;;;;;;;;;;;;;;;18.23;36.41;93897.81;4944051;28;20560;-66
2023/04/14 06:47:50;;;;;;;;;;;;;;;18.38;36.57;93899.84;4930258;29;19999;-63
2023/04/14 06:50:17;;;;;;;;;;;;;;;18.45;36.49;93892.16;4941567;29;19973;-64
2023/04/14 06:52:44;;;;;;;;;;;;;;;17.80;37.49;93890.25;4938308;28;19934;-63
2023/04/14 06:55:11;;;;;;;;;;;;;;;18.00;37.33;93883.38;4924476;29;19935;-66
2023/04/14 06:57:38;;;;;;;;;;;;;;;17.88;37.37;93875.38;4941955;29;20516;-64
2023/04/14 07:00:06;;;;;;;;;;;;;;;17.99;38.38;93871.22;4942933;29;19977;-61
2023/04/14 07:02:32;;;;;;;;;;;;;;;17.97;37.20;93857.53;4942114;28;20001;-60
2023/04/14 07:04:59;;;;;;;;;;;;;;;18.40;36.15;93860.53;4934898;29;19930;-60
2023/04/14 07:07:26;;;;;;;;;;;;;;;18.60;36.74;93838.47;4944399;29;19935;-60
2023/04/14 07:09:53;;;;;;;;;;;;;;;18.24;36.28;93862.25;4948601;29;20033;-61
2023/04/14 07:12:19;;;;;;;;;;;;;;;18.17;35.40;93851.41;4935252;29;20029;-60
2023/04/14 07:14:50;;;;;;;;;;;;;;;18.50;37.30;93844.22;4944404;29;20355;-61
2023/04/14 07:17:17;;;;;;;;;;;;;;;18.86;35.40;93856.75;4933368;29;19927;-60
2023/04/14 07:19:45;;;;;;;;;;;;;;;19.28;35.37;93842.13;4929347;29;19969;-62
2023/04/14 07:22:11;;;;;;;;;;;;;;;19.30;35.17;93834.59;4933403;29;19935;-60
2023/04/14 07:24:39;;;;;;;;;;;;;;;19.34;34.73;93829.41;4935626;29;20026;-61
2023/04/14 07:27:06;;;;;;;;;;;;;;;19.56;34.46;93820.94;4935908;29;19931;-62
2023/04/14 07:29:33;;;;;;;;;;;;;;;19.55;34.58;93832.66;4938582;29;20488;-62
2023/04/14 07:32:00;;;;;;;;;;;;;;;19.76;34.24;93831.38;4943965;29;19962;-61
2023/04/14 07:34:26;;;;;;;;;;;;;;;19.72;34.30;93822.56;4934244;29;19958;-60
2023/04/14 07:36:53;;;;;;;;;;;;;;;19.86;33.40;93835.44;4942804;29;19953;-59
2023/04/14 07:39:20;;;;;;;;;;;;;;;19.58;33.30;93824.03;4933947;29;19934;-59
2023/04/14 07:41:49;;;;;;;;;;;;;;;20.04;33.05;93831.38;4940841;29;19927;-58
2023/04/14 07:44:16;;;;;;;;;;;;;;;20.16;32.51;93828.69;4933900;29;19937;-60
2023/04/14 07:46:42;;;;;;;;;;;;;;;20.54;32.92;93822.84;4939635;29;19927;-60
2023/04/14 07:49:10;;;;;;;;;;;;;;;20.76;32.56;93799.06;4933846;29;19927;-59
2023/04/14 07:51:37;;;;;;;;;;;;;;;20.82;33.02;93802.97;4937819;29;19930;-61
2023/04/14 07:54:04;;;;;;;;;;;;;;;20.55;31.84;93798.53;4933233;29;19931;-60
2023/04/14 07:56:31;;;;;;;;;;;;;;;20.03;31.69;93803.25;4936661;29;19966;-59
2023/04/14 07:58:58;;;;;;;;;;;;;;;20.19;31.48;93812.06;4933495;29;19927;-58
2023/04/14 08:01:25;;;;;;;;;;;;;;;20.13;32.02;93802.75;4934737;29;20098;-58
2023/04/14 08:03:52;;;;;;;;;;;;;;;20.41;31.29;93808.84;4933967;29;19930;-60
2023/04/14 08:06:21;;;;;;;;;;;;;;;20.54;31.32;93812.97;4945826;29;19927;-61
2023/04/14 08:08:47;;;;;;;;;;;;;;;21.29;31.63;93804.84;4933081;29;19935;-61
2023/04/14 08:11:14;;;;;;;;;;;;;;;20.84;31.53;93811.41;4940309;28;19931;-63
2023/04/14 08:13:41;;;;;;;;;;;;;;;21.48;30.99;93804.84;4933221;29;20543;-61
2023/04/14 08:16:08;;;;;;;;;;;;;;;20.86;30.52;93811.84;4933162;29;20005;-61
2023/04/14 08:18:35;;;;;;;;;;;;;;;20.99;30.22;93813.31;4932970;29;19927;-61
2023/04/14 08:21:02;;;;;;;;;;;;;;;21.43;31.00;93805.13;4943628;29;19986;-60
2023/04/14 08:23:28;;;;;;;;;;;;;;;21.67;30.31;93799.53;4934558;28;20314;-59
2023/04/14 08:25:55;;;;;;;;;;;;;;;21.50;30.14;93811.38;4941638;29;20437;-59
2023/04/14 08:28:22;;;;;;;;;;;;;;;21.79;29.73;93802.09;4934252;29;20029;-58
2023/04/14 08:30:48;;;;;;;;;;;;;;;21.63;31.09;93788.81;4939967;28;20402;-60
2023/04/14 08:33:15;;;;;;;;;;;;;;;21.75;30.36;93794.00;4933999;29;20021;-61
2023/04/14 08:35:42;;;;;;;;;;;;;;;21.94;29.02;93798.56;4939343;29;19926;-59
2023/04/14 08:38:09;;;;;;;;;;;;;;;22.00;28.69;93797.19;4933389;29;19950;-62
2023/04/14 08:40:40;;;;;;;;;;;;;;;22.06;30.25;93804.53;4941943;28;20045;-59
2023/04/14 08:43:07;;;;;;;;;;;;;;;22.54;29.97;93792.41;4937809;28;19962;-58
2023/04/14 08:45:34;;;;;;;;;;;;;;;22.98;29.13;93787.41;4937373;29;19930;-61
2023/04/14 08:48:02;;;;;;;;;;;;;;;23.12;29.91;93787.63;4937388;29;19931;-57
2023/04/14 08:50:35;;;;;;;;;;;;;;;22.96;30.33;93821.72;4935909;28;20025;-58
2023/04/14 08:53:04;;;;;;;;;;;;;;;23.38;27.13;93825.06;4934992;29;19965;-59
2023/04/14 08:55:32;;;;;;;;;;;;;;;23.12;27.02;93836.50;4936130;29;20001;-56
2023/04/14 08:57:59;;;;;;;;;;;;;;;23.18;28.35;93807.56;4934603;29;20048;-58
2023/04/14 09:00:26;;;;;;;;;;;;;;;23.58;26.79;93809.66;4935091;29;19950;-59
2023/04/14 09:02:54;;;;;;;;;;;;;;;23.73;26.47;93835.47;4934669;29;19930;-59
2023/04/14 09:05:22;;;;;;;;;;;;;;;23.94;27.38;93822.38;4939639;29;19934;-57
2023/04/14 09:07:48;;;;;;;;;;;;;;;24.37;27.37;93840.47;4945523;28;20001;-58
2023/04/14 09:10:15;;;;;;;;;;;;;;;24.38;26.11;93852.72;4942821;29;20056;-59
2023/04/14 09:12:42;;;;;;;;;;;;;;;23.48;28.57;93807.63;4939518;29;20037;-60
2023/04/14 09:15:10;;;;;;;;;;;;;;;23.76;25.85;93848.88;4934857;29;19934;-60
2023/04/14 09:17:37;;;;;;;;;;;;;;;23.96;25.12;93842.25;4938025;28;19994;-60
2023/04/14 09:20:04;;;;;;;;;;;;;;;23.86;21.82;93820.72;4931843;29;19926;-61
2023/04/14 09:22:51;;;;;;;;;;;;;;;24.30;21.50;93815.53;4930358;29;19931;-59
2023/04/14 09:25:19;;;;;;;;;;;;;;;24.29;20.95;93822.03;4933345;29;20005;-60
2023/04/14 09:27:49;;;;;;;;;;;;;;;24.66;20.89;93836.16;4936891;29;20471;-61
2023/04/14 09:30:19;;;;;;;;;;;;;;;24.16;20.93;93828.75;4940571;29;20437;-62
2023/04/14 09:32:49;;;;;;;;;;;;;;;24.94;20.83;93805.03;4934734;29;20024;-61
2023/04/14 09:35:16;;;;;;;;;;;;;;;24.84;20.81;93845.16;4950300;28;20327;-64
2023/04/14 09:37:43;;;;;;;;;;;;;;;24.39;20.73;93816.78;4935234;29;19933;-61
2023/04/14 09:40:25;;;;;;;;;;;;;;;23.94;21.25;93817.03;4949837;29;19973;-61
2023/04/14 09:42:53;;;;;;;;;;;;;;;23.34;22.35;93891.06;4944197;28;20251;-64
2023/04/14 09:45:19;;;;;;;;;;;;;;;23.40;21.60;93833.50;4946714;28;20490;-61
2023/04/14 09:47:46;;;;;;;;;;;;;;;24.36;21.25;93854.97;4949416;29;19989;-61
2023/04/14 09:50:14;;;;;;;;;;;;;;;24.88;21.17;93833.34;4934504;29;19941;-62
2023/04/14 09:52:43;;;;;;;;;;;;;;;24.82;21.06;93845.53;4948123;29;20497;-62
2023/04/14 09:55:11;;;;;;;;;;;;;;;24.73;21.08;93879.88;4945960;28;19989;-59
2023/04/14 09:57:46;;;;;;;;;;;;;;;23.98;21.83;93863.31;4936655;29;19946;-64
2023/04/14 10:00:23;;;;;;;;;;;;;;;24.78;21.61;93868.81;4948446;28;20016;-59
2023/04/14 10:02:54;;;;;;;;;;;;;;;24.64;21.73;93866.00;4936345;29;20386;-67
2023/04/14 10:05:25;;;;;;;;;;;;;;;24.50;21.57;93876.56;4941705;29;19933;-63
2023/04/14 10:07:51;;;;;;;;;;;;;;;24.17;21.92;93899.88;4932421;29;19930;-65
2023/04/14 10:10:18;;;;;;;;;;;;;;;24.92;22.18;93893.09;4930329;29;19931;-63
2023/04/14 10:12:45;;;;;;;;;;;;;;;24.30;21.85;93920.72;4946852;28;20059;-66
2023/04/14 10:15:14;;;;;;;;;;;;;;;24.95;21.75;93913.78;4933375;29;19935;-64
2023/04/14 10:17:41;;;;;;;;;;;;;;;24.06;22.68;93931.88;4946321;29;19930;-64
2023/04/14 10:20:08;;;;;;;;;;;;;;;24.27;22.28;93942.09;4944482;28;20010;-69
2023/04/14 10:22:35;;;;;;;;;;;;;;;23.99;23.01;93958.50;4934702;28;19939;-68
2023/04/14 10:25:04;;;;;;;;;;;;;;;23.58;23.59;93986.16;4946811;28;20357;-66
2023/04/14 10:27:32;;;;;;;;;;;;;;;23.24;24.14;93976.41;4937519;29;20033;-65
2023/04/14 10:29:59;;;;;;;;;;;;;;;23.13;24.93;94030.47;4940042;28;19930;-62
2023/04/14 10:32:30;;;;;;;;;;;;;;;22.93;25.24;94030.84;4939893;28;19931;-67
2023/04/14 10:35:04;;;;;;;;;;;;;;;23.28;25.77;94044.06;4933363;29;20403;-61
2023/04/14 10:37:34;;;;;;;;;;;;;;;23.30;26.06;94057.91;4947218;29;20401;-66
2023/04/14 10:40:04;;;;;;;;;;;;;;;23.29;26.31;94078.50;4952949;29;20621;-64
2023/04/14 10:42:51;;;;;;;;;;;;;;;22.23;27.80;94099.53;4951949;29;20457;-65
2023/04/14 10:45:18;;;;;;;;;;;;;;;20.98;30.06;94130.56;4941466;29;19985;-65
2023/04/14 10:47:45;;;;;;;;;;;;;;;21.02;30.26;94134.88;4942817;29;20390;-61
2023/04/14 10:50:12;;;;;;;;;;;;;;;20.84;31.51;94178.84;4946996;29;19937;-65
2023/04/14 10:52:50;;;;;;;;;;;;;;;20.07;34.22;94193.16;4931050;28;19934;-61
2023/04/14 10:55:20;;;;;;;;;;;;;;;19.61;35.92;94208.69;4951247;29;19930;-64
2023/04/14 10:57:47;;;;;;;;;;;;;;;19.54;36.06;94211.91;4939051;29;20466;-63
2023/04/14 11:00:27;;;;;;;;;;;;;;;19.57;35.22;94215.78;4933633;29;19927;-64
2023/04/14 11:02:55;;;;;;;;;;;;;;;19.40;35.42;94222.00;4937739;29;19927;-67
2023/04/14 11:05:23;;;;;;;;;;;;;;;19.62;35.04;94213.69;4944416;29;19938;-61
2023/04/14 11:07:54;;;;;;;;;;;;;;;19.38;34.33;94236.75;4952273;28;20017;-63
2023/04/14 11:10:22;;;;;;;;;;;;;;;18.23;35.01;94263.75;4941249;28;19989;-64
2023/04/14 11:12:59;;;;;;;;;;;;;;;17.85;35.62;94252.31;4951379;29;19931;-66
2023/04/14 11:15:45;;;;;;;;;;;;;;;18.17;35.73;94254.44;4933962;29;20025;-62
2023/04/14 11:18:18;;;;;;;;;;;;;;;18.57;34.98;94263.66;4936368;29;19939;-69
2023/04/14 11:20:45;;;;;;;;;;;;;;;18.57;34.24;94263.66;4936473;29;19930;-68
2023/04/14 11:23:13;;;;;;;;;;;;;;;18.34;34.54;94280.88;4935021;29;19937;-62
2023/04/14 11:25:40;;;;;;;;;;;;;;;18.49;34.15;94272.41;4934034;29;19930;-61
2023/04/14 11:28:07;;;;;;;;;;;;;;;18.05;34.38;94256.94;4946205;29;19965;-63
2023/04/14 11:30:34;;;;;;;;;;;;;;;17.65;34.99;94279.47;4945009;29;19985;-60
2023/04/14 11:33:01;;;;;;;;;;;;;;;18.15;34.46;94277.81;4946611;29;19931;-60
2023/04/14 11:35:30;;;;;;;;;;;;;;;17.17;35.25;94288.34;4934401;29;19926;-62
2023/04/14 11:37:59;;;;;;;;;;;;;;;17.16;34.84;94297.38;4942505;28;19931;-62
2023/04/14 11:40:26;;;;;;;;;;;;;;;16.45;35.87;94316.31;4933876;29;19935;-63
2023/04/14 11:42:57;;;;;;;;;;;;;;;17.04;35.06;94318.38;4940784;29;19952;-61
2023/04/14 11:45:27;;;;;;;;;;;;;;;16.90;35.07;94333.59;4933100;29;20025;-63
2023/04/14 11:47:55;;;;;;;;;;;;;;;17.00;33.82;94343.94;4938741;29;19971;-63
2023/04/14 11:50:22;;;;;;;;;;;;;;;16.86;34.24;94347.78;4937373;29;19930;-61
2023/04/14 11:52:49;;;;;;;;;;;;;;;16.88;34.17;94354.31;4937005;29;20335;-63
2023/04/14 11:55:16;;;;;;;;;;;;;;;16.80;34.62;94360.38;4933760;29;20487;-62
2023/04/14 11:57:46;;;;;;;;;;;;;;;17.10;34.53;94366.66;4935923;29;20521;-61
2023/04/14 12:00:14;;;;;;;;;;;;;;;17.07;34.88;94364.63;4933830;29;19934;-62
2023/04/14 12:02:44;;;;;;;;;;;;;;;16.49;35.78;94383.44;4933448;29;20006;-62
2023/04/14 12:05:12;;;;;;;;;;;;;;;15.49;37.58;94388.44;4932949;29;20379;-63
2023/04/14 12:07:44;;;;;;;;;;;;;;;15.21;38.04;94393.75;4943620;29;19949;-62
2023/04/14 12:10:12;;;;;;;;;;;;;;;15.82;38.16;94387.94;4933736;29;19969;-63
2023/04/14 12:12:38;;;;;;;;;;;;;;;14.68;39.94;94390.06;4942446;29;19981;-62
2023/04/14 12:15:06;;;;;;;;;;;;;;;15.70;38.94;94386.91;4933556;29;20009;-62
2023/04/14 12:17:33;;;;;;;;;;;;;;;15.32;40.10;94394.31;4941689;29;19934;-64
2023/04/14 12:19:59;;;;;;;;;;;;;;;15.76;39.96;94377.78;4936559;29;19981;-61
2023/04/14 12:22:27;;;;;;;;;;;;;;;14.86;40.94;94386.56;4940467;29;19942;-63
2023/04/14 12:24:54;;;;;;;;;;;;;;;14.86;42.37;94397.09;4935612;29;19930;-62
2023/04/14 12:27:23;;;;;;;;;;;;;;;15.24;41.55;94390.53;4938894;29;19969;-63
2023/04/14 12:29:50;;;;;;;;;;;;;;;15.57;41.72;94385.09;4945438;28;19926;-63
2023/04/14 12:32:20;;;;;;;;;;;;;;;15.07;42.43;94392.22;4943508;29;19935;-67
2023/04/14 12:34:56;;;;;;;;;;;;;;;14.81;42.28;94389.28;4933649;28;19931;-61
2023/04/14 12:37:25;;;;;;;;;;;;;;;14.84;41.82;94378.16;4943329;29;19934;-64
2023/04/14 12:39:56;;;;;;;;;;;;;;;14.42;42.47;94338.09;4932347;29;20006;-63
2023/04/14 12:42:24;;;;;;;;;;;;;;;14.57;41.46;94330.69;4936511;28;19931;-71
2023/04/14 12:44:53;;;;;;;;;;;;;;;14.69;40.73;94332.84;4932962;29;19977;-63
2023/04/14 12:47:30;;;;;;;;;;;;;;;14.62;41.01;94327.94;4935224;29;20038;-63
2023/04/14 12:49:59;;;;;;;;;;;;;;;14.97;41.10;94292.94;4943063;29;19937;-62
2023/04/14 12:52:36;;;;;;;;;;;;;;;15.30;40.26;94290.09;4939706;28;19934;-62
2023/04/14 12:55:17;;;;;;;;;;;;;;;15.51;39.82;94276.16;4942261;28;20302;-58